Cherry Creek, New York
Current Conditions -  °F | °C
As of 12:55 AM on Sunday 23 Nov 2014 (Local Time) from KJHW Reporting Station
Overcast Overcast  
Wind Chill: 35°   Ceiling: 3800
Heat Index: 41°   Visibility: 10mi
Dew Point: 34°   Wind: 10mph
Humidity: 76%   Direction: 220°SW
Pressure: 30.04"   Gusts: NA
Location:  42.29°N, 79.1°W
Report Text: KJHW 230555Z AUTO 22009KT 10SM OVC038 05/01 A3004 RMK AO1 60007 10050 20030 52003
Loading
Personal Weather Stations






























Interactive Weather Map New forecast layout! Learn more

10-Day Weather Forecast

Advertisements
Track Severe Weather on mobile